sensor_id;sensor_type;location;lat;lon;timestamp;temperature;humidity
74416;SHT31;62850;42.428;25.618;2023-10-31T00:01:11;15.57;70.57
74416;SHT31;62850;42.428;25.618;2023-10-31T00:03:36;15.53;70.64
74416;SHT31;62850;42.428;25.618;2023-10-31T00:06:02;15.50;70.45
74416;SHT31;62850;42.428;25.618;2023-10-31T00:08:27;15.53;69.98
74416;SHT31;62850;42.428;25.618;2023-10-31T00:10:53;15.49;70.06
74416;SHT31;62850;42.428;25.618;2023-10-31T00:13:18;15.42;70.49
74416;SHT31;62850;42.428;25.618;2023-10-31T00:15:44;15.33;70.40
74416;SHT31;62850;42.428;25.618;2023-10-31T00:18:09;15.30;70.78
74416;SHT31;62850;42.428;25.618;2023-10-31T00:20:35;15.22;70.56
74416;SHT31;62850;42.428;25.618;2023-10-31T00:23:00;15.25;70.13
74416;SHT31;62850;42.428;25.618;2023-10-31T00:25:26;15.28;70.02
74416;SHT31;62850;42.428;25.618;2023-10-31T00:27:51;15.21;70.53
74416;SHT31;62850;42.428;25.618;2023-10-31T00:30:17;15.21;70.51
74416;SHT31;62850;42.428;25.618;2023-10-31T00:32:42;15.15;71.13
74416;SHT31;62850;42.428;25.618;2023-10-31T00:35:08;15.12;70.80
74416;SHT31;62850;42.428;25.618;2023-10-31T00:37:34;15.19;70.68
74416;SHT31;62850;42.428;25.618;2023-10-31T00:39:59;15.12;70.90
74416;SHT31;62850;42.428;25.618;2023-10-31T00:42:24;15.08;70.62
74416;SHT31;62850;42.428;25.618;2023-10-31T00:44:50;15.13;70.73
74416;SHT31;62850;42.428;25.618;2023-10-31T00:47:15;15.01;70.64
74416;SHT31;62850;42.428;25.618;2023-10-31T00:49:41;15.01;70.67
74416;SHT31;62850;42.428;25.618;2023-10-31T00:52:06;15.08;70.59
74416;SHT31;62850;42.428;25.618;2023-10-31T00:54:32;15.11;70.81
74416;SHT31;62850;42.428;25.618;2023-10-31T00:56:57;15.16;70.33
74416;SHT31;62850;42.428;25.618;2023-10-31T00:59:23;15.15;70.82
74416;SHT31;62850;42.428;25.618;2023-10-31T01:01:49;15.18;70.35
74416;SHT31;62850;42.428;25.618;2023-10-31T01:04:14;15.15;70.30
74416;SHT31;62850;42.428;25.618;2023-10-31T01:06:41;15.16;70.24
74416;SHT31;62850;42.428;25.618;2023-10-31T01:09:07;15.08;70.64
74416;SHT31;62850;42.428;25.618;2023-10-31T01:11:32;15.11;70.46
74416;SHT31;62850;42.428;25.618;2023-10-31T01:13:58;15.11;70.17
74416;SHT31;62850;42.428;25.618;2023-10-31T01:16:23;15.06;70.34
74416;SHT31;62850;42.428;25.618;2023-10-31T01:18:49;15.02;70.66
74416;SHT31;62850;42.428;25.618;2023-10-31T01:21:14;15.01;70.97
74416;SHT31;62850;42.428;25.618;2023-10-31T01:23:40;14.96;70.92
74416;SHT31;62850;42.428;25.618;2023-10-31T01:26:05;15.01;71.07
74416;SHT31;62850;42.428;25.618;2023-10-31T01:28:31;14.93;71.38
74416;SHT31;62850;42.428;25.618;2023-10-31T01:30:56;14.89;71.29
74416;SHT31;62850;42.428;25.618;2023-10-31T01:33:21;15.01;70.79
74416;SHT31;62850;42.428;25.618;2023-10-31T01:35:47;14.92;71.41
74416;SHT31;62850;42.428;25.618;2023-10-31T01:38:13;14.93;70.98
74416;SHT31;62850;42.428;25.618;2023-10-31T01:40:39;14.96;70.99
74416;SHT31;62850;42.428;25.618;2023-10-31T01:43:04;14.93;70.91
74416;SHT31;62850;42.428;25.618;2023-10-31T01:45:30;14.95;70.84
74416;SHT31;62850;42.428;25.618;2023-10-31T01:47:55;14.96;70.78
74416;SHT31;62850;42.428;25.618;2023-10-31T01:50:21;14.91;71.05
74416;SHT31;62850;42.428;25.618;2023-10-31T01:52:47;14.78;71.51
74416;SHT31;62850;42.428;25.618;2023-10-31T01:55:13;14.80;71.50
74416;SHT31;62850;42.428;25.618;2023-10-31T01:57:39;14.84;71.67
74416;SHT31;62850;42.428;25.618;2023-10-31T02:00:05;14.75;71.92
74416;SHT31;62850;42.428;25.618;2023-10-31T02:02:32;14.77;71.66
74416;SHT31;62850;42.428;25.618;2023-10-31T02:04:59;14.70;72.19
74416;SHT31;62850;42.428;25.618;2023-10-31T02:07:24;14.61;72.46
74416;SHT31;62850;42.428;25.618;2023-10-31T02:09:50;14.59;73.05
74416;SHT31;62850;42.428;25.618;2023-10-31T02:12:36;14.50;72.95
74416;SHT31;62850;42.428;25.618;2023-10-31T02:15:03;14.43;73.17
74416;SHT31;62850;42.428;25.618;2023-10-31T02:17:29;14.47;73.36
74416;SHT31;62850;42.428;25.618;2023-10-31T02:19:55;14.47;73.49
74416;SHT31;62850;42.428;25.618;2023-10-31T02:22:21;14.47;73.27
74416;SHT31;62850;42.428;25.618;2023-10-31T02:24:47;14.50;73.73
74416;SHT31;62850;42.428;25.618;2023-10-31T02:27:12;14.48;73.40
74416;SHT31;62850;42.428;25.618;2023-10-31T02:29:39;14.45;73.18
74416;SHT31;62850;42.428;25.618;2023-10-31T02:32:05;14.43;73.42
74416;SHT31;62850;42.428;25.618;2023-10-31T02:34:30;14.38;73.79
74416;SHT31;62850;42.428;25.618;2023-10-31T02:36:56;14.43;73.73
74416;SHT31;62850;42.428;25.618;2023-10-31T02:39:21;14.40;73.68
74416;SHT31;62850;42.428;25.618;2023-10-31T02:41:46;14.38;74.20
74416;SHT31;62850;42.428;25.618;2023-10-31T02:44:14;14.34;74.33
74416;SHT31;62850;42.428;25.618;2023-10-31T02:46:40;14.34;73.93
74416;SHT31;62850;42.428;25.618;2023-10-31T02:49:06;14.30;74.40
74416;SHT31;62850;42.428;25.618;2023-10-31T02:51:31;14.24;74.59
74416;SHT31;62850;42.428;25.618;2023-10-31T02:53:57;14.20;74.44
74416;SHT31;62850;42.428;25.618;2023-10-31T02:56:22;14.23;74.44
74416;SHT31;62850;42.428;25.618;2023-10-31T02:58:48;14.23;74.66
74416;SHT31;62850;42.428;25.618;2023-10-31T03:01:14;14.20;75.04
74416;SHT31;62850;42.428;25.618;2023-10-31T03:03:39;14.19;75.09
74416;SHT31;62850;42.428;25.618;2023-10-31T03:06:05;14.19;75.21
74416;SHT31;62850;42.428;25.618;2023-10-31T03:08:30;14.22;75.08
74416;SHT31;62850;42.428;25.618;2023-10-31T03:10:56;14.20;75.14
74416;SHT31;62850;42.428;25.618;2023-10-31T03:13:21;14.20;75.02
74416;SHT31;62850;42.428;25.618;2023-10-31T03:15:48;14.23;75.05
74416;SHT31;62850;42.428;25.618;2023-10-31T03:18:14;14.19;75.37
74416;SHT31;62850;42.428;25.618;2023-10-31T03:20:40;14.20;75.17
74416;SHT31;62850;42.428;25.618;2023-10-31T03:23:06;14.10;75.34
74416;SHT31;62850;42.428;25.618;2023-10-31T03:25:31;14.08;75.52
74416;SHT31;62850;42.428;25.618;2023-10-31T03:27:57;14.01;75.66
74416;SHT31;62850;42.428;25.618;2023-10-31T03:30:22;14.06;75.26
74416;SHT31;62850;42.428;25.618;2023-10-31T03:32:48;13.99;75.59
74416;SHT31;62850;42.428;25.618;2023-10-31T03:35:13;13.98;75.64
74416;SHT31;62850;42.428;25.618;2023-10-31T03:37:38;14.05;75.45
74416;SHT31;62850;42.428;25.618;2023-10-31T03:40:10;14.01;75.62
74416;SHT31;62850;42.428;25.618;2023-10-31T03:42:36;13.93;75.94
74416;SHT31;62850;42.428;25.618;2023-10-31T03:45:01;13.93;75.86
74416;SHT31;62850;42.428;25.618;2023-10-31T03:47:27;13.89;75.94
74416;SHT31;62850;42.428;25.618;2023-10-31T03:49:52;13.86;76.26
74416;SHT31;62850;42.428;25.618;2023-10-31T03:52:18;13.92;76.02
74416;SHT31;62850;42.428;25.618;2023-10-31T03:54:45;13.87;76.01
74416;SHT31;62850;42.428;25.618;2023-10-31T03:57:10;13.86;76.39
74416;SHT31;62850;42.428;25.618;2023-10-31T03:59:39;13.81;76.57
74416;SHT31;62850;42.428;25.618;2023-10-31T04:02:04;13.83;76.39
74416;SHT31;62850;42.428;25.618;2023-10-31T04:04:30;13.87;76.35
74416;SHT31;62850;42.428;25.618;2023-10-31T04:06:55;13.89;76.35
74416;SHT31;62850;42.428;25.618;2023-10-31T04:09:21;13.83;76.63
74416;SHT31;62850;42.428;25.618;2023-10-31T04:11:47;13.85;76.58
74416;SHT31;62850;42.428;25.618;2023-10-31T04:14:12;13.78;76.89
74416;SHT31;62850;42.428;25.618;2023-10-31T04:16:42;13.82;76.83
74416;SHT31;62850;42.428;25.618;2023-10-31T04:19:12;13.87;76.57
74416;SHT31;62850;42.428;25.618;2023-10-31T04:21:38;13.83;76.80
74416;SHT31;62850;42.428;25.618;2023-10-31T04:24:04;13.78;76.83
74416;SHT31;62850;42.428;25.618;2023-10-31T04:26:30;13.81;76.72
74416;SHT31;62850;42.428;25.618;2023-10-31T04:28:55;13.86;76.47
74416;SHT31;62850;42.428;25.618;2023-10-31T04:31:21;13.73;76.72
74416;SHT31;62850;42.428;25.618;2023-10-31T04:33:46;13.65;77.04
74416;SHT31;62850;42.428;25.618;2023-10-31T04:36:12;13.73;76.69
74416;SHT31;62850;42.428;25.618;2023-10-31T04:38:37;13.68;76.79
74416;SHT31;62850;42.428;25.618;2023-10-31T04:41:08;13.66;77.03
74416;SHT31;62850;42.428;25.618;2023-10-31T04:43:33;13.66;77.07
74416;SHT31;62850;42.428;25.618;2023-10-31T04:46:00;13.66;76.83
74416;SHT31;62850;42.428;25.618;2023-10-31T04:48:25;13.62;76.71
74416;SHT31;62850;42.428;25.618;2023-10-31T04:50:51;13.65;76.72
74416;SHT31;62850;42.428;25.618;2023-10-31T04:53:16;13.59;76.79
74416;SHT31;62850;42.428;25.618;2023-10-31T04:55:42;13.57;77.30
74416;SHT31;62850;42.428;25.618;2023-10-31T04:58:07;13.51;77.17
74416;SHT31;62850;42.428;25.618;2023-10-31T05:00:33;13.52;77.34
74416;SHT31;62850;42.428;25.618;2023-10-31T05:02:58;13.47;77.92
74416;SHT31;62850;42.428;25.618;2023-10-31T05:05:25;13.40;77.92
74416;SHT31;62850;42.428;25.618;2023-10-31T05:07:50;13.41;78.09
74416;SHT31;62850;42.428;25.618;2023-10-31T05:10:16;13.44;77.82
74416;SHT31;62850;42.428;25.618;2023-10-31T05:12:41;13.43;77.90
74416;SHT31;62850;42.428;25.618;2023-10-31T05:15:07;13.38;77.95
74416;SHT31;62850;42.428;25.618;2023-10-31T05:17:33;13.40;78.00
74416;SHT31;62850;42.428;25.618;2023-10-31T05:19:58;13.44;78.06
74416;SHT31;62850;42.428;25.618;2023-10-31T05:22:24;13.44;78.92
74416;SHT31;62850;42.428;25.618;2023-10-31T05:24:49;13.48;78.12
74416;SHT31;62850;42.428;25.618;2023-10-31T05:27:14;13.52;77.94
74416;SHT31;62850;42.428;25.618;2023-10-31T05:29:40;13.55;77.84
74416;SHT31;62850;42.428;25.618;2023-10-31T05:32:06;13.57;77.91
74416;SHT31;62850;42.428;25.618;2023-10-31T05:34:31;13.61;77.88
74416;SHT31;62850;42.428;25.618;2023-10-31T05:36:57;13.66;77.72
74416;SHT31;62850;42.428;25.618;2023-10-31T05:39:22;13.76;77.52
74416;SHT31;62850;42.428;25.618;2023-10-31T05:41:47;13.86;77.32
74416;SHT31;62850;42.428;25.618;2023-10-31T05:44:13;13.90;77.39
74416;SHT31;62850;42.428;25.618;2023-10-31T05:46:39;13.98;77.88
74416;SHT31;62850;42.428;25.618;2023-10-31T05:49:06;14.08;77.71
74416;SHT31;62850;42.428;25.618;2023-10-31T05:51:32;14.13;76.96
74416;SHT31;62850;42.428;25.618;2023-10-31T05:53:59;14.23;76.82
74416;SHT31;62850;42.428;25.618;2023-10-31T05:56:25;14.34;76.52
74416;SHT31;62850;42.428;25.618;2023-10-31T05:58:50;14.45;76.28
74416;SHT31;62850;42.428;25.618;2023-10-31T06:01:16;14.57;76.07
74416;SHT31;62850;42.428;25.618;2023-10-31T06:03:42;14.72;75.69
74416;SHT31;62850;42.428;25.618;2023-10-31T06:06:11;14.80;75.54
74416;SHT31;62850;42.428;25.618;2023-10-31T06:08:38;14.89;75.25
74416;SHT31;62850;42.428;25.618;2023-10-31T06:11:04;15.01;74.98
74416;SHT31;62850;42.428;25.618;2023-10-31T06:13:29;15.12;74.73
74416;SHT31;62850;42.428;25.618;2023-10-31T06:15:57;15.22;74.32
74416;SHT31;62850;42.428;25.618;2023-10-31T06:18:26;15.26;74.26
74416;SHT31;62850;42.428;25.618;2023-10-31T06:20:52;15.33;73.85
74416;SHT31;62850;42.428;25.618;2023-10-31T06:23:18;15.42;73.72
74416;SHT31;62850;42.428;25.618;2023-10-31T06:25:43;15.50;73.68
74416;SHT31;62850;42.428;25.618;2023-10-31T06:28:09;15.57;73.63
74416;SHT31;62850;42.428;25.618;2023-10-31T06:30:34;15.67;73.29
74416;SHT31;62850;42.428;25.618;2023-10-31T06:33:00;15.67;74.01
74416;SHT31;62850;42.428;25.618;2023-10-31T06:35:26;15.69;74.68
74416;SHT31;62850;42.428;25.618;2023-10-31T06:37:55;15.67;74.38
74416;SHT31;62850;42.428;25.618;2023-10-31T06:40:25;15.77;74.21
74416;SHT31;62850;42.428;25.618;2023-10-31T06:42:51;15.81;73.65
74416;SHT31;62850;42.428;25.618;2023-10-31T06:45:16;15.91;73.45
74416;SHT31;62850;42.428;25.618;2023-10-31T06:47:42;15.97;73.34
74416;SHT31;62850;42.428;25.618;2023-10-31T06:50:08;16.07;72.41
74416;SHT31;62850;42.428;25.618;2023-10-31T06:52:34;16.11;72.19
74416;SHT31;62850;42.428;25.618;2023-10-31T06:54:59;16.22;71.26
74416;SHT31;62850;42.428;25.618;2023-10-31T06:57:25;16.28;70.90
74416;SHT31;62850;42.428;25.618;2023-10-31T06:59:51;16.36;70.87
74416;SHT31;62850;42.428;25.618;2023-10-31T07:02:17;16.38;70.39
74416;SHT31;62850;42.428;25.618;2023-10-31T07:04:43;16.48;70.34
74416;SHT31;62850;42.428;25.618;2023-10-31T07:07:08;16.51;70.21
74416;SHT31;62850;42.428;25.618;2023-10-31T07:09:34;16.56;70.00
74416;SHT31;62850;42.428;25.618;2023-10-31T07:11:59;16.62;69.93
74416;SHT31;62850;42.428;25.618;2023-10-31T07:14:24;16.70;69.53
74416;SHT31;62850;42.428;25.618;2023-10-31T07:16:50;16.75;69.33
74416;SHT31;62850;42.428;25.618;2023-10-31T07:19:15;16.72;68.90
74416;SHT31;62850;42.428;25.618;2023-10-31T07:21:41;16.77;68.93
74416;SHT31;62850;42.428;25.618;2023-10-31T07:24:07;16.80;68.95
74416;SHT31;62850;42.428;25.618;2023-10-31T07:26:37;16.86;68.53
74416;SHT31;62850;42.428;25.618;2023-10-31T07:29:03;16.89;68.46
74416;SHT31;62850;42.428;25.618;2023-10-31T07:31:28;16.90;68.48
74416;SHT31;62850;42.428;25.618;2023-10-31T07:33:54;16.99;68.43
74416;SHT31;62850;42.428;25.618;2023-10-31T07:36:19;17.06;68.24
74416;SHT31;62850;42.428;25.618;2023-10-31T07:38:45;17.08;68.25
74416;SHT31;62850;42.428;25.618;2023-10-31T07:41:10;17.11;68.23
74416;SHT31;62850;42.428;25.618;2023-10-31T07:43:36;17.17;68.27
74416;SHT31;62850;42.428;25.618;2023-10-31T07:46:02;17.18;68.46
74416;SHT31;62850;42.428;25.618;2023-10-31T07:48:27;17.21;68.56
74416;SHT31;62850;42.428;25.618;2023-10-31T07:50:53;17.28;68.65
74416;SHT31;62850;42.428;25.618;2023-10-31T07:53:18;17.32;68.40
74416;SHT31;62850;42.428;25.618;2023-10-31T07:55:44;17.34;68.43
74416;SHT31;62850;42.428;25.618;2023-10-31T07:58:09;17.34;68.45
74416;SHT31;62850;42.428;25.618;2023-10-31T08:00:35;17.37;68.45
74416;SHT31;62850;42.428;25.618;2023-10-31T08:03:02;17.41;68.46
74416;SHT31;62850;42.428;25.618;2023-10-31T08:05:27;17.39;68.32
74416;SHT31;62850;42.428;25.618;2023-10-31T08:07:53;17.42;68.24
74416;SHT31;62850;42.428;25.618;2023-10-31T08:10:18;17.47;68.52
74416;SHT31;62850;42.428;25.618;2023-10-31T08:12:44;17.55;68.72
74416;SHT31;62850;42.428;25.618;2023-10-31T08:15:10;17.61;68.71
74416;SHT31;62850;42.428;25.618;2023-10-31T08:17:35;17.64;68.28
74416;SHT31;62850;42.428;25.618;2023-10-31T08:20:02;17.68;68.30
74416;SHT31;62850;42.428;25.618;2023-10-31T08:22:29;17.75;68.31
74416;SHT31;62850;42.428;25.618;2023-10-31T08:24:54;17.76;68.12
74416;SHT31;62850;42.428;25.618;2023-10-31T08:27:20;17.74;68.36
74416;SHT31;62850;42.428;25.618;2023-10-31T08:29:45;17.78;68.46
74416;SHT31;62850;42.428;25.618;2023-10-31T08:32:11;17.82;68.56
74416;SHT31;62850;42.428;25.618;2023-10-31T08:34:36;17.83;68.72
74416;SHT31;62850;42.428;25.618;2023-10-31T08:37:02;17.90;68.66
74416;SHT31;62850;42.428;25.618;2023-10-31T08:39:28;17.95;68.44
74416;SHT31;62850;42.428;25.618;2023-10-31T08:41:57;18.00;68.42
74416;SHT31;62850;42.428;25.618;2023-10-31T08:44:23;18.06;68.25
74416;SHT31;62850;42.428;25.618;2023-10-31T08:46:49;18.09;68.74
74416;SHT31;62850;42.428;25.618;2023-10-31T08:49:15;18.12;67.94
74416;SHT31;62850;42.428;25.618;2023-10-31T08:51:41;18.16;67.53
74416;SHT31;62850;42.428;25.618;2023-10-31T08:54:07;18.25;67.64
74416;SHT31;62850;42.428;25.618;2023-10-31T08:56:34;18.27;67.59
74416;SHT31;62850;42.428;25.618;2023-10-31T08:58:59;18.29;67.64
74416;SHT31;62850;42.428;25.618;2023-10-31T09:01:26;18.25;67.51
74416;SHT31;62850;42.428;25.618;2023-10-31T09:03:51;18.30;67.40
74416;SHT31;62850;42.428;25.618;2023-10-31T09:06:17;18.36;67.34
74416;SHT31;62850;42.428;25.618;2023-10-31T09:08:43;18.37;67.36
74416;SHT31;62850;42.428;25.618;2023-10-31T09:11:08;18.41;67.19
74416;SHT31;62850;42.428;25.618;2023-10-31T09:13:34;18.55;66.89
74416;SHT31;62850;42.428;25.618;2023-10-31T09:15:59;18.61;66.98
74416;SHT31;62850;42.428;25.618;2023-10-31T09:18:25;18.67;66.92
74416;SHT31;62850;42.428;25.618;2023-10-31T09:20:51;18.71;66.77
74416;SHT31;62850;42.428;25.618;2023-10-31T09:23:17;18.71;67.40
74416;SHT31;62850;42.428;25.618;2023-10-31T09:25:43;18.69;66.50
74416;SHT31;62850;42.428;25.618;2023-10-31T09:28:09;18.78;66.83
74416;SHT31;62850;42.428;25.618;2023-10-31T09:30:34;18.83;66.61
74416;SHT31;62850;42.428;25.618;2023-10-31T09:33:00;18.87;66.64
74416;SHT31;62850;42.428;25.618;2023-10-31T09:35:25;18.88;66.27
74416;SHT31;62850;42.428;25.618;2023-10-31T09:37:52;18.94;66.24
74416;SHT31;62850;42.428;25.618;2023-10-31T09:40:17;18.99;66.31
74416;SHT31;62850;42.428;25.618;2023-10-31T09:42:46;19.04;66.36
74416;SHT31;62850;42.428;25.618;2023-10-31T09:45:12;19.04;65.93
74416;SHT31;62850;42.428;25.618;2023-10-31T09:47:38;19.05;65.56
74416;SHT31;62850;42.428;25.618;2023-10-31T09:50:04;19.15;65.29
74416;SHT31;62850;42.428;25.618;2023-10-31T09:52:30;19.15;64.79
74416;SHT31;62850;42.428;25.618;2023-10-31T09:54:56;19.22;64.65
74416;SHT31;62850;42.428;25.618;2023-10-31T09:57:21;19.22;64.70
74416;SHT31;62850;42.428;25.618;2023-10-31T09:59:47;19.18;64.72
74416;SHT31;62850;42.428;25.618;2023-10-31T10:02:12;19.23;64.55
74416;SHT31;62850;42.428;25.618;2023-10-31T10:04:38;19.22;64.12
74416;SHT31;62850;42.428;25.618;2023-10-31T10:07:04;19.25;64.10
74416;SHT31;62850;42.428;25.618;2023-10-31T10:09:30;19.36;64.27
74416;SHT31;62850;42.428;25.618;2023-10-31T10:12:01;19.40;64.22
74416;SHT31;62850;42.428;25.618;2023-10-31T10:14:27;19.40;64.29
74416;SHT31;62850;42.428;25.618;2023-10-31T10:16:54;19.42;64.33
74416;SHT31;62850;42.428;25.618;2023-10-31T10:19:22;19.47;64.48
74416;SHT31;62850;42.428;25.618;2023-10-31T10:21:58;19.52;64.31
74416;SHT31;62850;42.428;25.618;2023-10-31T10:24:24;19.50;64.10
74416;SHT31;62850;42.428;25.618;2023-10-31T10:26:51;19.52;63.92
74416;SHT31;62850;42.428;25.618;2023-10-31T10:29:17;19.52;63.40
74416;SHT31;62850;42.428;25.618;2023-10-31T10:31:43;19.52;62.96
74416;SHT31;62850;42.428;25.618;2023-10-31T10:34:14;19.53;63.03
74416;SHT31;62850;42.428;25.618;2023-10-31T10:36:39;19.56;63.26
74416;SHT31;62850;42.428;25.618;2023-10-31T10:39:06;19.60;62.72
74416;SHT31;62850;42.428;25.618;2023-10-31T10:41:34;19.66;63.00
74416;SHT31;62850;42.428;25.618;2023-10-31T10:44:06;19.67;62.94
74416;SHT31;62850;42.428;25.618;2023-10-31T10:46:34;19.66;62.65
74416;SHT31;62850;42.428;25.618;2023-10-31T10:49:04;19.70;62.20
74416;SHT31;62850;42.428;25.618;2023-10-31T10:51:52;19.73;61.34
74416;SHT31;62850;42.428;25.618;2023-10-31T10:54:37;19.77;61.82
74416;SHT31;62850;42.428;25.618;2023-10-31T10:57:48;19.80;61.60
74416;SHT31;62850;42.428;25.618;2023-10-31T11:00:16;19.81;60.46
74416;SHT31;62850;42.428;25.618;2023-10-31T11:02:44;19.87;60.22
74416;SHT31;62850;42.428;25.618;2023-10-31T11:05:10;19.95;59.64
74416;SHT31;62850;42.428;25.618;2023-10-31T11:07:37;19.98;58.94
74416;SHT31;62850;42.428;25.618;2023-10-31T11:10:04;20.05;59.11
74416;SHT31;62850;42.428;25.618;2023-10-31T11:12:30;20.05;58.86
74416;SHT31;62850;42.428;25.618;2023-10-31T11:15:01;19.97;59.43
74416;SHT31;62850;42.428;25.618;2023-10-31T11:17:30;19.97;59.43
74416;SHT31;62850;42.428;25.618;2023-10-31T11:19:56;20.03;59.18
74416;SHT31;62850;42.428;25.618;2023-10-31T11:22:22;20.07;59.26
74416;SHT31;62850;42.428;25.618;2023-10-31T11:24:51;20.14;59.08
74416;SHT31;62850;42.428;25.618;2023-10-31T11:27:17;20.14;58.44
74416;SHT31;62850;42.428;25.618;2023-10-31T11:29:43;20.22;58.03
74416;SHT31;62850;42.428;25.618;2023-10-31T11:32:10;20.24;57.86
74416;SHT31;62850;42.428;25.618;2023-10-31T11:34:38;20.29;57.44
74416;SHT31;62850;42.428;25.618;2023-10-31T11:42:47;20.43;56.70
74416;SHT31;62850;42.428;25.618;2023-10-31T11:47:51;20.46;56.12
74416;SHT31;62850;42.428;25.618;2023-10-31T11:50:17;20.52;56.11
74416;SHT31;62850;42.428;25.618;2023-10-31T11:52:43;20.52;55.44
74416;SHT31;62850;42.428;25.618;2023-10-31T11:55:12;20.57;54.89
74416;SHT31;62850;42.428;25.618;2023-10-31T11:57:39;20.66;55.15
74416;SHT31;62850;42.428;25.618;2023-10-31T12:00:06;20.72;54.80
74416;SHT31;62850;42.428;25.618;2023-10-31T12:02:33;20.72;54.63
74416;SHT31;62850;42.428;25.618;2023-10-31T12:05:12;20.79;54.24
74416;SHT31;62850;42.428;25.618;2023-10-31T12:07:45;20.84;53.32
74416;SHT31;62850;42.428;25.618;2023-10-31T12:10:11;20.84;53.85
74416;SHT31;62850;42.428;25.618;2023-10-31T12:12:37;20.77;53.65
74416;SHT31;62850;42.428;25.618;2023-10-31T12:15:07;20.72;53.68
74416;SHT31;62850;42.428;25.618;2023-10-31T12:17:33;20.82;53.43
74416;SHT31;62850;42.428;25.618;2023-10-31T12:20:06;20.87;53.55
74416;SHT31;62850;42.428;25.618;2023-10-31T12:22:33;20.94;53.09
74416;SHT31;62850;42.428;25.618;2023-10-31T12:25:06;20.99;52.58
74416;SHT31;62850;42.428;25.618;2023-10-31T12:28:01;21.04;52.63
74416;SHT31;62850;42.428;25.618;2023-10-31T12:30:27;21.10;52.54
74416;SHT31;62850;42.428;25.618;2023-10-31T12:32:54;21.11;52.68
74416;SHT31;62850;42.428;25.618;2023-10-31T12:35:23;21.13;52.43
74416;SHT31;62850;42.428;25.618;2023-10-31T12:37:51;21.20;52.31
74416;SHT31;62850;42.428;25.618;2023-10-31T12:40:18;21.20;52.00
74416;SHT31;62850;42.428;25.618;2023-10-31T12:42:44;21.27;52.03
74416;SHT31;62850;42.428;25.618;2023-10-31T12:45:11;21.30;52.13
74416;SHT31;62850;42.428;25.618;2023-10-31T12:47:37;21.32;52.07
74416;SHT31;62850;42.428;25.618;2023-10-31T12:50:13;21.31;52.09
74416;SHT31;62850;42.428;25.618;2023-10-31T12:52:56;21.38;52.22
74416;SHT31;62850;42.428;25.618;2023-10-31T12:55:27;21.37;52.19
74416;SHT31;62850;42.428;25.618;2023-10-31T12:57:54;21.35;52.19
74416;SHT31;62850;42.428;25.618;2023-10-31T13:00:21;21.31;52.39
74416;SHT31;62850;42.428;25.618;2023-10-31T13:03:11;21.34;52.20
74416;SHT31;62850;42.428;25.618;2023-10-31T13:05:37;21.30;52.01
74416;SHT31;62850;42.428;25.618;2023-10-31T13:08:13;21.14;52.34
74416;SHT31;62850;42.428;25.618;2023-10-31T13:10:39;21.24;52.07
74416;SHT31;62850;42.428;25.618;2023-10-31T13:13:04;21.34;52.10
74416;SHT31;62850;42.428;25.618;2023-10-31T13:15:30;21.41;51.77
74416;SHT31;62850;42.428;25.618;2023-10-31T13:17:55;21.41;52.03
74416;SHT31;62850;42.428;25.618;2023-10-31T13:20:22;21.45;51.98
74416;SHT31;62850;42.428;25.618;2023-10-31T13:22:48;21.48;51.64
74416;SHT31;62850;42.428;25.618;2023-10-31T13:25:15;21.51;51.82
74416;SHT31;62850;42.428;25.618;2023-10-31T13:27:43;21.42;51.99
74416;SHT31;62850;42.428;25.618;2023-10-31T13:30:10;21.37;52.00
74416;SHT31;62850;42.428;25.618;2023-10-31T13:32:42;21.34;51.86
74416;SHT31;62850;42.428;25.618;2023-10-31T13:35:07;21.44;51.80
74416;SHT31;62850;42.428;25.618;2023-10-31T13:37:36;21.32;51.99
74416;SHT31;62850;42.428;25.618;2023-10-31T13:40:02;21.32;52.00
74416;SHT31;62850;42.428;25.618;2023-10-31T13:42:28;21.30;51.96
74416;SHT31;62850;42.428;25.618;2023-10-31T13:44:54;21.31;51.97
74416;SHT31;62850;42.428;25.618;2023-10-31T13:47:19;21.34;51.98
74416;SHT31;62850;42.428;25.618;2023-10-31T13:49:45;21.37;52.04
74416;SHT31;62850;42.428;25.618;2023-10-31T13:52:10;21.44;51.86
74416;SHT31;62850;42.428;25.618;2023-10-31T13:54:36;21.50;51.65
74416;SHT31;62850;42.428;25.618;2023-10-31T13:57:01;21.50;51.81
74416;SHT31;62850;42.428;25.618;2023-10-31T13:59:27;21.54;51.46
74416;SHT31;62850;42.428;25.618;2023-10-31T14:01:52;21.61;51.33
74416;SHT31;62850;42.428;25.618;2023-10-31T14:04:19;21.63;51.68
74416;SHT31;62850;42.428;25.618;2023-10-31T14:06:45;21.63;51.76
74416;SHT31;62850;42.428;25.618;2023-10-31T14:09:12;21.63;51.71
74416;SHT31;62850;42.428;25.618;2023-10-31T14:11:38;21.65;51.66
74416;SHT31;62850;42.428;25.618;2023-10-31T14:14:04;21.62;51.64
74416;SHT31;62850;42.428;25.618;2023-10-31T14:16:36;21.62;51.53
74416;SHT31;62850;42.428;25.618;2023-10-31T14:19:02;21.57;51.75
74416;SHT31;62850;42.428;25.618;2023-10-31T14:21:29;21.51;51.92
74416;SHT31;62850;42.428;25.618;2023-10-31T14:23:54;21.55;51.71
74416;SHT31;62850;42.428;25.618;2023-10-31T14:26:20;21.54;51.84
74416;SHT31;62850;42.428;25.618;2023-10-31T14:28:47;21.51;51.88
74416;SHT31;62850;42.428;25.618;2023-10-31T14:31:13;21.40;52.18
74416;SHT31;62850;42.428;25.618;2023-10-31T14:33:39;21.34;52.46
74416;SHT31;62850;42.428;25.618;2023-10-31T14:36:05;21.26;52.53
74416;SHT31;62850;42.428;25.618;2023-10-31T14:38:31;21.23;52.62
74416;SHT31;62850;42.428;25.618;2023-10-31T14:40:56;21.23;52.74
74416;SHT31;62850;42.428;25.618;2023-10-31T14:43:22;21.15;52.96
74416;SHT31;62850;42.428;25.618;2023-10-31T14:45:47;21.10;53.28
74416;SHT31;62850;42.428;25.618;2023-10-31T14:48:13;21.01;53.64
74416;SHT31;62850;42.428;25.618;2023-10-31T14:50:38;20.90;53.82
74416;SHT31;62850;42.428;25.618;2023-10-31T14:53:06;20.77;53.86
74416;SHT31;62850;42.428;25.618;2023-10-31T14:55:32;20.71;53.99
74416;SHT31;62850;42.428;25.618;2023-10-31T14:57:58;20.68;54.05
74416;SHT31;62850;42.428;25.618;2023-10-31T15:00:23;20.59;54.20
74416;SHT31;62850;42.428;25.618;2023-10-31T15:02:48;20.53;54.39
74416;SHT31;62850;42.428;25.618;2023-10-31T15:05:14;20.48;54.57
74416;SHT31;62850;42.428;25.618;2023-10-31T15:07:39;20.41;54.74
74416;SHT31;62850;42.428;25.618;2023-10-31T15:10:06;20.35;55.09
74416;SHT31;62850;42.428;25.618;2023-10-31T15:12:32;20.32;55.19
74416;SHT31;62850;42.428;25.618;2023-10-31T15:14:58;20.15;55.60
74416;SHT31;62850;42.428;25.618;2023-10-31T15:17:24;20.08;55.84
74416;SHT31;62850;42.428;25.618;2023-10-31T15:19:49;19.90;56.29